Terminal Aerodrome Forecast
Issued by NWS

Home | Current Version | Previous Version | Graphics & Text | Print | Product List | Glossary On
Versions: 1 2 3 4 5 6 7 8 9 10 11 12 13 14 15 16 17 18 19 20 21 22 23 24 25
000
FTUS45 KGGW 262300
TAFGDV
TAF
KGDV 262337Z 2700/2724 VRB06KT P6SM SCT030 OVC110
     FM270300 VRB04KT P6SM VCSH OVC030
     FM271500 23008KT P6SM BKN050 OVC100
      AMD LTD TO CLD VIS AND WIND=

USA.gov is the U.S. government's official web portal to all federal, state and local government web resources and services.